Terminal Aerodrome Forecast
Issued by NWS Bismarck, ND

Home | Current Version | Previous Version | Graphics & Text | Print | Product List | Glossary On
Versions: 1 2 3 4 5 6 7 8 9 10 11 12 13 14 15 16 17 18 19 20 21
000
FTUS43 KBIS 172341
TAFBIS
TAF
KBIS 172341Z 1800/1824 02013G22KT P6SM SKC
     FM180200 03010KT P6SM FEW300
     FM180700 05008KT P6SM BKN180
     FM180800 05007KT P6SM VCSH SCT070 BKN120
     FM181500 09006KT P6SM SCT110 BKN150=

USA.gov is the U.S. government's official web portal to all federal, state and local government web resources and services.